sensor_id;sensor_type;location;lat;lon;timestamp;P1;durP1;ratioP1;P2;durP2;ratioP2
19903;SDS011;10114;50.970;4.962;2024-02-26T00:01:49;0.32;;;0.30;;
19903;SDS011;10114;50.970;4.962;2024-02-26T00:04:15;0.70;;;0.50;;
19903;SDS011;10114;50.970;4.962;2024-02-26T00:06:42;1.33;;;0.50;;
19903;SDS011;10114;50.970;4.962;2024-02-26T00:09:09;0.50;;;0.30;;
19903;SDS011;10114;50.970;4.962;2024-02-26T00:11:35;3.22;;;0.60;;
19903;SDS011;10114;50.970;4.962;2024-02-26T00:14:02;1.10;;;0.60;;
19903;SDS011;10114;50.970;4.962;2024-02-26T00:16:28;0.75;;;0.40;;
19903;SDS011;10114;50.970;4.962;2024-02-26T00:18:55;0.63;;;0.20;;
19903;SDS011;10114;50.970;4.962;2024-02-26T00:21:21;0.40;;;0.30;;
19903;SDS011;10114;50.970;4.962;2024-02-26T00:23:47;1.58;;;0.52;;
19903;SDS011;10114;50.970;4.962;2024-02-26T00:26:15;0.45;;;0.38;;
19903;SDS011;10114;50.970;4.962;2024-02-26T00:28:41;0.40;;;0.30;;
19903;SDS011;10114;50.970;4.962;2024-02-26T00:31:07;0.40;;;0.20;;
19903;SDS011;10114;50.970;4.962;2024-02-26T00:33:33;0.40;;;0.35;;
19903;SDS011;10114;50.970;4.962;2024-02-26T00:35:59;2.13;;;0.32;;
19903;SDS011;10114;50.970;4.962;2024-02-26T00:38:25;2.60;;;0.38;;
19903;SDS011;10114;50.970;4.962;2024-02-26T00:40:52;0.28;;;0.22;;
19903;SDS011;10114;50.970;4.962;2024-02-26T00:43:18;0.30;;;0.20;;
19903;SDS011;10114;50.970;4.962;2024-02-26T00:45:44;0.40;;;0.40;;
19903;SDS011;10114;50.970;4.962;2024-02-26T00:48:12;0.50;;;0.50;;
19903;SDS011;10114;50.970;4.962;2024-02-26T00:50:39;0.35;;;0.32;;
19903;SDS011;10114;50.970;4.962;2024-02-26T00:53:05;0.57;;;0.40;;
19903;SDS011;10114;50.970;4.962;2024-02-26T00:55:31;1.08;;;0.80;;
19903;SDS011;10114;50.970;4.962;2024-02-26T00:57:57;0.52;;;0.30;;
19903;SDS011;10114;50.970;4.962;2024-02-26T01:00:23;0.40;;;0.30;;
19903;SDS011;10114;50.970;4.962;2024-02-26T01:02:49;1.77;;;0.70;;
19903;SDS011;10114;50.970;4.962;2024-02-26T01:05:15;0.57;;;0.30;;
19903;SDS011;10114;50.970;4.962;2024-02-26T01:07:43;0.73;;;0.35;;
19903;SDS011;10114;50.970;4.962;2024-02-26T01:10:09;1.42;;;0.50;;
19903;SDS011;10114;50.970;4.962;2024-02-26T01:12:35;0.40;;;0.40;;
19903;SDS011;10114;50.970;4.962;2024-02-26T01:15:02;0.85;;;0.63;;
19903;SDS011;10114;50.970;4.962;2024-02-26T01:17:28;1.17;;;0.80;;
19903;SDS011;10114;50.970;4.962;2024-02-26T01:19:55;0.20;;;0.20;;
19903;SDS011;10114;50.970;4.962;2024-02-26T01:22:21;0.30;;;0.30;;
19903;SDS011;10114;50.970;4.962;2024-02-26T01:24:47;1.27;;;0.77;;
19903;SDS011;10114;50.970;4.962;2024-02-26T01:27:13;0.40;;;0.30;;
19903;SDS011;10114;50.970;4.962;2024-02-26T01:29:40;1.13;;;0.50;;
19903;SDS011;10114;50.970;4.962;2024-02-26T01:32:07;0.17;;;0.17;;
19903;SDS011;10114;50.970;4.962;2024-02-26T01:34:33;0.65;;;0.30;;
19903;SDS011;10114;50.970;4.962;2024-02-26T01:37:00;0.70;;;0.38;;
19903;SDS011;10114;50.970;4.962;2024-02-26T01:39:26;0.85;;;0.30;;
19903;SDS011;10114;50.970;4.962;2024-02-26T01:41:54;1.20;;;0.43;;
19903;SDS011;10114;50.970;4.962;2024-02-26T01:44:20;0.90;;;0.43;;
19903;SDS011;10114;50.970;4.962;2024-02-26T01:46:47;0.50;;;0.35;;
19903;SDS011;10114;50.970;4.962;2024-02-26T01:49:13;0.85;;;0.22;;
19903;SDS011;10114;50.970;4.962;2024-02-26T01:51:40;0.70;;;0.50;;
19903;SDS011;10114;50.970;4.962;2024-02-26T01:54:07;0.30;;;0.20;;
19903;SDS011;10114;50.970;4.962;2024-02-26T01:56:33;0.47;;;0.40;;
19903;SDS011;10114;50.970;4.962;2024-02-26T01:59:01;0.20;;;0.20;;
19903;SDS011;10114;50.970;4.962;2024-02-26T02:01:31;1.38;;;0.50;;
19903;SDS011;10114;50.970;4.962;2024-02-26T02:03:58;0.57;;;0.40;;
19903;SDS011;10114;50.970;4.962;2024-02-26T02:06:24;0.38;;;0.30;;
19903;SDS011;10114;50.970;4.962;2024-02-26T02:08:51;0.20;;;0.20;;
19903;SDS011;10114;50.970;4.962;2024-02-26T02:11:18;1.48;;;0.60;;
19903;SDS011;10114;50.970;4.962;2024-02-26T02:13:45;0.20;;;0.20;;
19903;SDS011;10114;50.970;4.962;2024-02-26T02:16:11;1.83;;;0.75;;
19903;SDS011;10114;50.970;4.962;2024-02-26T02:18:37;0.90;;;0.40;;
19903;SDS011;10114;50.970;4.962;2024-02-26T02:21:03;1.23;;;0.65;;
19903;SDS011;10114;50.970;4.962;2024-02-26T02:23:29;1.60;;;0.52;;
19903;SDS011;10114;50.970;4.962;2024-02-26T02:25:55;0.30;;;0.30;;
19903;SDS011;10114;50.970;4.962;2024-02-26T02:28:22;1.38;;;0.50;;
19903;SDS011;10114;50.970;4.962;2024-02-26T02:30:48;0.75;;;0.43;;
19903;SDS011;10114;50.970;4.962;2024-02-26T02:33:15;0.55;;;0.32;;
19903;SDS011;10114;50.970;4.962;2024-02-26T02:35:41;1.27;;;0.35;;
19903;SDS011;10114;50.970;4.962;2024-02-26T02:38:07;0.85;;;0.38;;
19903;SDS011;10114;50.970;4.962;2024-02-26T02:40:33;1.40;;;0.40;;
19903;SDS011;10114;50.970;4.962;2024-02-26T02:42:59;0.28;;;0.25;;
19903;SDS011;10114;50.970;4.962;2024-02-26T02:45:27;0.20;;;0.20;;
19903;SDS011;10114;50.970;4.962;2024-02-26T02:47:53;1.00;;;0.30;;
19903;SDS011;10114;50.970;4.962;2024-02-26T02:50:19;0.60;;;0.40;;
19903;SDS011;10114;50.970;4.962;2024-02-26T02:52:45;0.55;;;0.40;;
19903;SDS011;10114;50.970;4.962;2024-02-26T02:55:12;0.30;;;0.30;;
19903;SDS011;10114;50.970;4.962;2024-02-26T02:57:38;1.30;;;0.60;;
19903;SDS011;10114;50.970;4.962;2024-02-26T03:00:07;0.60;;;0.45;;
19903;SDS011;10114;50.970;4.962;2024-02-26T03:02:34;0.50;;;0.40;;
19903;SDS011;10114;50.970;4.962;2024-02-26T03:05:03;0.32;;;0.32;;
19903;SDS011;10114;50.970;4.962;2024-02-26T03:07:29;0.30;;;0.30;;
19903;SDS011;10114;50.970;4.962;2024-02-26T03:09:55;0.40;;;0.40;;
19903;SDS011;10114;50.970;4.962;2024-02-26T03:12:21;0.40;;;0.40;;
19903;SDS011;10114;50.970;4.962;2024-02-26T03:14:47;0.98;;;0.80;;
19903;SDS011;10114;50.970;4.962;2024-02-26T03:17:13;0.60;;;0.60;;
19903;SDS011;10114;50.970;4.962;2024-02-26T03:19:39;0.60;;;0.60;;
19903;SDS011;10114;50.970;4.962;2024-02-26T03:22:06;1.02;;;0.82;;
19903;SDS011;10114;50.970;4.962;2024-02-26T03:24:32;0.32;;;0.32;;
19903;SDS011;10114;50.970;4.962;2024-02-26T03:26:58;1.15;;;0.75;;
19903;SDS011;10114;50.970;4.962;2024-02-26T03:29:24;1.58;;;0.80;;
19903;SDS011;10114;50.970;4.962;2024-02-26T03:31:50;0.73;;;0.60;;
19903;SDS011;10114;50.970;4.962;2024-02-26T03:34:16;0.50;;;0.50;;
19903;SDS011;10114;50.970;4.962;2024-02-26T03:36:43;1.63;;;0.73;;
19903;SDS011;10114;50.970;4.962;2024-02-26T03:39:09;0.50;;;0.50;;
19903;SDS011;10114;50.970;4.962;2024-02-26T03:41:36;0.82;;;0.50;;
19903;SDS011;10114;50.970;4.962;2024-02-26T03:44:02;0.60;;;0.50;;
19903;SDS011;10114;50.970;4.962;2024-02-26T03:46:28;1.38;;;0.80;;
19903;SDS011;10114;50.970;4.962;2024-02-26T03:48:54;0.95;;;0.68;;
19903;SDS011;10114;50.970;4.962;2024-02-26T03:51:20;0.93;;;0.73;;
19903;SDS011;10114;50.970;4.962;2024-02-26T03:53:46;0.73;;;0.65;;
19903;SDS011;10114;50.970;4.962;2024-02-26T03:56:12;0.77;;;0.60;;
19903;SDS011;10114;50.970;4.962;2024-02-26T03:58:38;0.90;;;0.77;;
19903;SDS011;10114;50.970;4.962;2024-02-26T04:01:06;1.42;;;0.80;;
19903;SDS011;10114;50.970;4.962;2024-02-26T04:03:33;0.73;;;0.73;;
19903;SDS011;10114;50.970;4.962;2024-02-26T04:05:59;0.63;;;0.32;;
19903;SDS011;10114;50.970;4.962;2024-02-26T04:08:25;0.70;;;0.70;;
19903;SDS011;10114;50.970;4.962;2024-02-26T04:10:51;1.02;;;0.80;;
19903;SDS011;10114;50.970;4.962;2024-02-26T04:13:17;2.15;;;1.20;;
19903;SDS011;10114;50.970;4.962;2024-02-26T04:15:44;1.80;;;0.82;;
19903;SDS011;10114;50.970;4.962;2024-02-26T04:18:11;0.30;;;0.30;;
19903;SDS011;10114;50.970;4.962;2024-02-26T04:20:37;2.45;;;1.60;;
19903;SDS011;10114;50.970;4.962;2024-02-26T04:23:03;0.57;;;0.57;;
19903;SDS011;10114;50.970;4.962;2024-02-26T04:25:29;0.82;;;0.77;;
19903;SDS011;10114;50.970;4.962;2024-02-26T04:27:55;0.63;;;0.50;;
19903;SDS011;10114;50.970;4.962;2024-02-26T04:30:22;1.17;;;0.52;;
19903;SDS011;10114;50.970;4.962;2024-02-26T04:32:48;1.23;;;0.85;;
19903;SDS011;10114;50.970;4.962;2024-02-26T04:35:14;0.50;;;0.45;;
19903;SDS011;10114;50.970;4.962;2024-02-26T04:37:40;0.50;;;0.50;;
19903;SDS011;10114;50.970;4.962;2024-02-26T04:40:06;0.88;;;0.50;;
19903;SDS011;10114;50.970;4.962;2024-02-26T04:42:33;1.27;;;0.75;;
19903;SDS011;10114;50.970;4.962;2024-02-26T04:44:59;3.20;;;0.95;;
19903;SDS011;10114;50.970;4.962;2024-02-26T04:47:25;1.92;;;0.80;;
19903;SDS011;10114;50.970;4.962;2024-02-26T04:49:51;2.17;;;0.50;;
19903;SDS011;10114;50.970;4.962;2024-02-26T04:52:18;1.42;;;0.82;;
19903;SDS011;10114;50.970;4.962;2024-02-26T04:54:44;0.98;;;0.77;;
19903;SDS011;10114;50.970;4.962;2024-02-26T04:57:10;0.88;;;0.60;;
19903;SDS011;10114;50.970;4.962;2024-02-26T04:59:36;1.88;;;1.25;;
19903;SDS011;10114;50.970;4.962;2024-02-26T05:02:03;1.60;;;1.02;;
19903;SDS011;10114;50.970;4.962;2024-02-26T05:04:29;2.30;;;1.33;;
19903;SDS011;10114;50.970;4.962;2024-02-26T05:06:55;2.10;;;1.08;;
19903;SDS011;10114;50.970;4.962;2024-02-26T05:09:21;3.30;;;1.52;;
19903;SDS011;10114;50.970;4.962;2024-02-26T05:11:48;1.77;;;1.15;;
19903;SDS011;10114;50.970;4.962;2024-02-26T05:14:14;2.78;;;1.98;;
19903;SDS011;10114;50.970;4.962;2024-02-26T05:16:40;1.35;;;1.02;;
19903;SDS011;10114;50.970;4.962;2024-02-26T05:19:06;1.80;;;1.05;;
19903;SDS011;10114;50.970;4.962;2024-02-26T05:21:32;3.92;;;1.65;;
19903;SDS011;10114;50.970;4.962;2024-02-26T05:23:59;2.10;;;1.38;;
19903;SDS011;10114;50.970;4.962;2024-02-26T05:26:25;3.47;;;1.50;;
19903;SDS011;10114;50.970;4.962;2024-02-26T05:28:51;2.13;;;1.50;;
19903;SDS011;10114;50.970;4.962;2024-02-26T05:31:17;3.17;;;1.30;;
19903;SDS011;10114;50.970;4.962;2024-02-26T05:33:43;2.33;;;1.38;;
19903;SDS011;10114;50.970;4.962;2024-02-26T05:36:10;1.33;;;1.17;;
19903;SDS011;10114;50.970;4.962;2024-02-26T05:38:36;1.65;;;1.10;;
19903;SDS011;10114;50.970;4.962;2024-02-26T05:41:02;0.80;;;0.73;;
19903;SDS011;10114;50.970;4.962;2024-02-26T05:43:29;2.53;;;1.38;;
19903;SDS011;10114;50.970;4.962;2024-02-26T05:45:55;1.05;;;0.85;;
19903;SDS011;10114;50.970;4.962;2024-02-26T05:48:21;2.78;;;1.35;;
19903;SDS011;10114;50.970;4.962;2024-02-26T05:50:48;2.63;;;1.73;;
19903;SDS011;10114;50.970;4.962;2024-02-26T05:53:14;3.35;;;1.75;;
19903;SDS011;10114;50.970;4.962;2024-02-26T05:55:40;1.65;;;1.10;;
19903;SDS011;10114;50.970;4.962;2024-02-26T05:58:06;1.65;;;1.40;;
19903;SDS011;10114;50.970;4.962;2024-02-26T06:00:32;3.85;;;1.80;;
19903;SDS011;10114;50.970;4.962;2024-02-26T06:02:58;8.38;;;2.22;;
19903;SDS011;10114;50.970;4.962;2024-02-26T06:05:24;2.97;;;1.98;;
19903;SDS011;10114;50.970;4.962;2024-02-26T06:07:51;2.53;;;1.38;;
19903;SDS011;10114;50.970;4.962;2024-02-26T06:10:17;1.90;;;1.60;;
19903;SDS011;10114;50.970;4.962;2024-02-26T06:12:46;1.80;;;1.35;;
19903;SDS011;10114;50.970;4.962;2024-02-26T06:15:12;3.38;;;2.00;;
19903;SDS011;10114;50.970;4.962;2024-02-26T06:17:38;2.90;;;1.70;;
19903;SDS011;10114;50.970;4.962;2024-02-26T06:20:04;2.33;;;1.48;;
19903;SDS011;10114;50.970;4.962;2024-02-26T06:22:31;2.78;;;1.40;;
19903;SDS011;10114;50.970;4.962;2024-02-26T06:24:57;2.58;;;1.92;;
19903;SDS011;10114;50.970;4.962;2024-02-26T06:27:23;2.90;;;1.83;;
19903;SDS011;10114;50.970;4.962;2024-02-26T06:29:49;3.38;;;2.10;;
19903;SDS011;10114;50.970;4.962;2024-02-26T06:32:15;3.35;;;2.10;;
19903;SDS011;10114;50.970;4.962;2024-02-26T06:34:42;0.65;;;0.63;;
19903;SDS011;10114;50.970;4.962;2024-02-26T06:37:08;2.75;;;1.63;;
19903;SDS011;10114;50.970;4.962;2024-02-26T06:39:34;2.45;;;1.50;;
19903;SDS011;10114;50.970;4.962;2024-02-26T06:42:00;2.35;;;1.75;;
19903;SDS011;10114;50.970;4.962;2024-02-26T06:44:27;2.70;;;1.65;;
19903;SDS011;10114;50.970;4.962;2024-02-26T06:46:59;3.03;;;1.65;;
19903;SDS011;10114;50.970;4.962;2024-02-26T06:49:26;4.35;;;1.80;;
19903;SDS011;10114;50.970;4.962;2024-02-26T06:51:52;2.33;;;1.70;;
19903;SDS011;10114;50.970;4.962;2024-02-26T06:54:18;2.03;;;1.50;;
19903;SDS011;10114;50.970;4.962;2024-02-26T06:56:45;3.10;;;1.52;;
19903;SDS011;10114;50.970;4.962;2024-02-26T06:59:11;1.80;;;1.23;;
19903;SDS011;10114;50.970;4.962;2024-02-26T07:01:39;1.33;;;0.90;;
19903;SDS011;10114;50.970;4.962;2024-02-26T07:04:05;2.28;;;1.50;;
19903;SDS011;10114;50.970;4.962;2024-02-26T07:06:31;2.35;;;1.58;;
19903;SDS011;10114;50.970;4.962;2024-02-26T07:08:57;1.67;;;1.38;;
19903;SDS011;10114;50.970;4.962;2024-02-26T07:11:23;3.97;;;2.08;;
19903;SDS011;10114;50.970;4.962;2024-02-26T07:13:49;2.05;;;1.65;;
19903;SDS011;10114;50.970;4.962;2024-02-26T07:16:15;3.58;;;2.03;;
19903;SDS011;10114;50.970;4.962;2024-02-26T07:18:42;3.28;;;1.63;;
19903;SDS011;10114;50.970;4.962;2024-02-26T07:21:14;2.20;;;1.33;;
19903;SDS011;10114;50.970;4.962;2024-02-26T07:23:40;3.75;;;2.00;;
19903;SDS011;10114;50.970;4.962;2024-02-26T07:26:07;1.65;;;1.13;;
19903;SDS011;10114;50.970;4.962;2024-02-26T07:28:33;3.22;;;1.55;;
19903;SDS011;10114;50.970;4.962;2024-02-26T07:30:59;2.75;;;1.88;;
19903;SDS011;10114;50.970;4.962;2024-02-26T07:33:25;1.17;;;1.08;;
19903;SDS011;10114;50.970;4.962;2024-02-26T07:35:51;1.23;;;1.10;;
19903;SDS011;10114;50.970;4.962;2024-02-26T07:38:18;2.35;;;1.10;;
19903;SDS011;10114;50.970;4.962;2024-02-26T07:40:44;5.10;;;2.83;;
19903;SDS011;10114;50.970;4.962;2024-02-26T07:43:10;2.50;;;1.27;;
19903;SDS011;10114;50.970;4.962;2024-02-26T07:45:36;3.38;;;2.45;;
19903;SDS011;10114;50.970;4.962;2024-02-26T07:48:02;0.90;;;0.85;;
19903;SDS011;10114;50.970;4.962;2024-02-26T07:50:29;0.73;;;0.70;;
19903;SDS011;10114;50.970;4.962;2024-02-26T07:52:55;2.13;;;1.55;;
19903;SDS011;10114;50.970;4.962;2024-02-26T07:55:21;3.78;;;1.88;;
19903;SDS011;10114;50.970;4.962;2024-02-26T07:57:48;1.73;;;1.25;;
19903;SDS011;10114;50.970;4.962;2024-02-26T08:00:14;2.13;;;1.50;;
19903;SDS011;10114;50.970;4.962;2024-02-26T08:02:42;3.95;;;2.13;;
19903;SDS011;10114;50.970;4.962;2024-02-26T08:05:09;4.78;;;2.00;;
19903;SDS011;10114;50.970;4.962;2024-02-26T08:07:35;1.27;;;1.17;;
19903;SDS011;10114;50.970;4.962;2024-02-26T08:10:01;1.90;;;1.33;;
19903;SDS011;10114;50.970;4.962;2024-02-26T08:12:27;2.83;;;2.15;;
19903;SDS011;10114;50.970;4.962;2024-02-26T08:14:53;1.30;;;1.10;;
19903;SDS011;10114;50.970;4.962;2024-02-26T08:17:19;1.58;;;1.13;;
19903;SDS011;10114;50.970;4.962;2024-02-26T08:19:45;1.63;;;1.30;;
19903;SDS011;10114;50.970;4.962;2024-02-26T08:22:11;1.50;;;1.05;;
19903;SDS011;10114;50.970;4.962;2024-02-26T08:24:41;1.08;;;0.88;;
19903;SDS011;10114;50.970;4.962;2024-02-26T08:27:07;3.08;;;1.80;;
19903;SDS011;10114;50.970;4.962;2024-02-26T08:29:33;2.78;;;1.48;;
19903;SDS011;10114;50.970;4.962;2024-02-26T08:31:59;1.48;;;1.38;;
19903;SDS011;10114;50.970;4.962;2024-02-26T08:34:26;3.08;;;2.00;;
19903;SDS011;10114;50.970;4.962;2024-02-26T08:36:52;1.98;;;1.35;;
19903;SDS011;10114;50.970;4.962;2024-02-26T08:39:18;2.13;;;1.80;;
19903;SDS011;10114;50.970;4.962;2024-02-26T08:41:44;1.65;;;1.52;;
19903;SDS011;10114;50.970;4.962;2024-02-26T08:44:10;4.22;;;2.10;;
19903;SDS011;10114;50.970;4.962;2024-02-26T08:46:36;3.13;;;1.48;;
19903;SDS011;10114;50.970;4.962;2024-02-26T08:49:03;2.67;;;1.65;;
19903;SDS011;10114;50.970;4.962;2024-02-26T08:51:29;2.47;;;1.55;;
19903;SDS011;10114;50.970;4.962;2024-02-26T08:53:56;1.65;;;1.38;;
19903;SDS011;10114;50.970;4.962;2024-02-26T08:56:22;3.22;;;2.05;;
19903;SDS011;10114;50.970;4.962;2024-02-26T08:58:48;1.30;;;1.10;;
19903;SDS011;10114;50.970;4.962;2024-02-26T09:01:18;2.38;;;1.52;;
19903;SDS011;10114;50.970;4.962;2024-02-26T09:03:44;3.22;;;2.22;;
19903;SDS011;10114;50.970;4.962;2024-02-26T09:06:10;1.15;;;0.95;;
19903;SDS011;10114;50.970;4.962;2024-02-26T09:08:39;4.60;;;2.13;;
19903;SDS011;10114;50.970;4.962;2024-02-26T09:11:05;2.63;;;1.70;;
19903;SDS011;10114;50.970;4.962;2024-02-26T09:13:32;2.20;;;1.80;;
19903;SDS011;10114;50.970;4.962;2024-02-26T09:15:58;2.67;;;2.20;;
19903;SDS011;10114;50.970;4.962;2024-02-26T09:18:25;2.55;;;1.23;;
19903;SDS011;10114;50.970;4.962;2024-02-26T09:20:54;2.25;;;1.30;;
19903;SDS011;10114;50.970;4.962;2024-02-26T09:23:20;1.95;;;1.45;;
19903;SDS011;10114;50.970;4.962;2024-02-26T09:25:46;2.30;;;1.50;;
19903;SDS011;10114;50.970;4.962;2024-02-26T09:28:12;1.20;;;0.95;;
19903;SDS011;10114;50.970;4.962;2024-02-26T09:30:40;4.05;;;2.00;;
19903;SDS011;10114;50.970;4.962;2024-02-26T09:33:06;1.73;;;0.80;;
19903;SDS011;10114;50.970;4.962;2024-02-26T09:35:33;0.75;;;0.70;;
19903;SDS011;10114;50.970;4.962;2024-02-26T09:37:59;0.52;;;0.52;;
19903;SDS011;10114;50.970;4.962;2024-02-26T09:40:25;2.28;;;1.33;;
19903;SDS011;10114;50.970;4.962;2024-02-26T09:42:53;1.02;;;0.90;;
19903;SDS011;10114;50.970;4.962;2024-02-26T09:45:22;2.60;;;1.77;;
19903;SDS011;10114;50.970;4.962;2024-02-26T09:47:48;4.10;;;1.85;;
19903;SDS011;10114;50.970;4.962;2024-02-26T09:50:17;1.35;;;1.05;;
19903;SDS011;10114;50.970;4.962;2024-02-26T09:52:47;2.15;;;1.55;;
19903;SDS011;10114;50.970;4.962;2024-02-26T09:55:13;4.53;;;2.65;;
19903;SDS011;10114;50.970;4.962;2024-02-26T09:57:42;1.92;;;1.33;;
19903;SDS011;10114;50.970;4.962;2024-02-26T10:00:10;3.70;;;1.65;;
19903;SDS011;10114;50.970;4.962;2024-02-26T10:02:38;2.58;;;1.60;;
19903;SDS011;10114;50.970;4.962;2024-02-26T10:05:05;2.00;;;1.30;;
19903;SDS011;10114;50.970;4.962;2024-02-26T10:07:33;5.05;;;2.90;;
19903;SDS011;10114;50.970;4.962;2024-02-26T10:09:59;4.88;;;2.72;;
19903;SDS011;10114;50.970;4.962;2024-02-26T10:12:26;5.07;;;3.35;;
19903;SDS011;10114;50.970;4.962;2024-02-26T10:14:53;2.72;;;2.03;;
19903;SDS011;10114;50.970;4.962;2024-02-26T10:17:19;3.13;;;2.30;;
19903;SDS011;10114;50.970;4.962;2024-02-26T10:19:45;6.70;;;3.17;;
19903;SDS011;10114;50.970;4.962;2024-02-26T10:22:11;4.65;;;2.80;;
19903;SDS011;10114;50.970;4.962;2024-02-26T10:24:38;4.18;;;2.38;;
19903;SDS011;10114;50.970;4.962;2024-02-26T10:27:04;5.10;;;2.85;;
19903;SDS011;10114;50.970;4.962;2024-02-26T10:29:31;6.03;;;3.60;;
19903;SDS011;10114;50.970;4.962;2024-02-26T10:31:57;3.45;;;2.28;;
19903;SDS011;10114;50.970;4.962;2024-02-26T10:34:23;4.80;;;3.00;;
19903;SDS011;10114;50.970;4.962;2024-02-26T10:36:50;3.75;;;2.08;;
19903;SDS011;10114;50.970;4.962;2024-02-26T10:39:16;6.15;;;3.08;;
19903;SDS011;10114;50.970;4.962;2024-02-26T10:41:43;4.60;;;2.58;;
19903;SDS011;10114;50.970;4.962;2024-02-26T10:44:10;4.85;;;2.55;;
19903;SDS011;10114;50.970;4.962;2024-02-26T10:46:37;3.40;;;2.10;;
19903;SDS011;10114;50.970;4.962;2024-02-26T10:49:03;5.70;;;2.85;;
19903;SDS011;10114;50.970;4.962;2024-02-26T10:51:31;3.40;;;2.17;;
19903;SDS011;10114;50.970;4.962;2024-02-26T10:53:58;5.28;;;2.85;;
19903;SDS011;10114;50.970;4.962;2024-02-26T10:56:29;4.10;;;2.33;;
19903;SDS011;10114;50.970;4.962;2024-02-26T10:58:57;4.47;;;2.88;;
19903;SDS011;10114;50.970;4.962;2024-02-26T11:01:23;3.55;;;1.77;;
19903;SDS011;10114;50.970;4.962;2024-02-26T11:03:50;2.63;;;1.75;;
19903;SDS011;10114;50.970;4.962;2024-02-26T11:06:17;4.18;;;2.05;;
19903;SDS011;10114;50.970;4.962;2024-02-26T11:08:43;5.32;;;3.15;;
19903;SDS011;10114;50.970;4.962;2024-02-26T11:11:10;2.35;;;1.67;;
19903;SDS011;10114;50.970;4.962;2024-02-26T11:13:40;1.80;;;1.30;;
19903;SDS011;10114;50.970;4.962;2024-02-26T11:16:10;3.50;;;1.98;;
19903;SDS011;10114;50.970;4.962;2024-02-26T11:18:36;3.30;;;2.15;;
19903;SDS011;10114;50.970;4.962;2024-02-26T11:21:03;3.00;;;1.80;;
19903;SDS011;10114;50.970;4.962;2024-02-26T11:23:30;3.33;;;2.15;;
19903;SDS011;10114;50.970;4.962;2024-02-26T11:25:59;3.05;;;1.95;;
19903;SDS011;10114;50.970;4.962;2024-02-26T11:28:26;3.75;;;1.88;;
19903;SDS011;10114;50.970;4.962;2024-02-26T11:30:53;4.70;;;3.15;;
19903;SDS011;10114;50.970;4.962;2024-02-26T11:33:19;2.85;;;2.05;;
19903;SDS011;10114;50.970;4.962;2024-02-26T11:35:46;3.03;;;1.88;;
19903;SDS011;10114;50.970;4.962;2024-02-26T11:38:21;4.30;;;2.60;;
19903;SDS011;10114;50.970;4.962;2024-02-26T11:40:49;3.00;;;1.73;;
19903;SDS011;10114;50.970;4.962;2024-02-26T11:43:16;2.95;;;1.73;;
19903;SDS011;10114;50.970;4.962;2024-02-26T11:48:11;4.38;;;2.30;;
19903;SDS011;10114;50.970;4.962;2024-02-26T11:50:50;5.68;;;2.65;;
19903;SDS011;10114;50.970;4.962;2024-02-26T11:53:27;2.58;;;1.80;;
19903;SDS011;10114;50.970;4.962;2024-02-26T11:58:39;3.58;;;1.92;;
19903;SDS011;10114;50.970;4.962;2024-02-26T12:01:05;4.00;;;2.20;;
19903;SDS011;10114;50.970;4.962;2024-02-26T12:03:31;3.60;;;2.17;;
19903;SDS011;10114;50.970;4.962;2024-02-26T12:05:58;2.83;;;1.35;;
19903;SDS011;10114;50.970;4.962;2024-02-26T12:08:24;3.55;;;2.00;;
19903;SDS011;10114;50.970;4.962;2024-02-26T12:10:50;2.40;;;1.83;;
19903;SDS011;10114;50.970;4.962;2024-02-26T12:13:19;5.22;;;1.98;;
19903;SDS011;10114;50.970;4.962;2024-02-26T12:15:55;2.90;;;2.05;;
19903;SDS011;10114;50.970;4.962;2024-02-26T12:18:22;3.20;;;2.13;;
19903;SDS011;10114;50.970;4.962;2024-02-26T12:21:02;1.15;;;0.90;;
19903;SDS011;10114;50.970;4.962;2024-02-26T12:23:29;3.28;;;2.40;;
19903;SDS011;10114;50.970;4.962;2024-02-26T12:26:01;4.30;;;3.03;;
19903;SDS011;10114;50.970;4.962;2024-02-26T12:28:30;2.53;;;1.90;;
19903;SDS011;10114;50.970;4.962;2024-02-26T12:30:56;4.05;;;2.50;;
19903;SDS011;10114;50.970;4.962;2024-02-26T12:33:24;4.10;;;2.50;;
19903;SDS011;10114;50.970;4.962;2024-02-26T12:35:51;5.90;;;3.33;;
19903;SDS011;10114;50.970;4.962;2024-02-26T12:38:17;1.70;;;1.45;;
19903;SDS011;10114;50.970;4.962;2024-02-26T12:40:44;2.72;;;1.90;;
19903;SDS011;10114;50.970;4.962;2024-02-26T12:43:10;3.05;;;2.17;;
19903;SDS011;10114;50.970;4.962;2024-02-26T12:45:41;4.28;;;2.58;;
19903;SDS011;10114;50.970;4.962;2024-02-26T12:48:10;3.20;;;2.35;;
19903;SDS011;10114;50.970;4.962;2024-02-26T12:50:36;1.58;;;1.42;;
19903;SDS011;10114;50.970;4.962;2024-02-26T12:53:02;3.58;;;2.55;;
19903;SDS011;10114;50.970;4.962;2024-02-26T12:55:29;3.25;;;1.90;;
19903;SDS011;10114;50.970;4.962;2024-02-26T12:57:56;6.72;;;4.10;;
19903;SDS011;10114;50.970;4.962;2024-02-26T13:00:24;2.95;;;1.95;;
19903;SDS011;10114;50.970;4.962;2024-02-26T13:02:51;5.55;;;3.33;;
19903;SDS011;10114;50.970;4.962;2024-02-26T13:05:17;6.22;;;3.78;;
19903;SDS011;10114;50.970;4.962;2024-02-26T13:07:45;5.78;;;3.38;;
19903;SDS011;10114;50.970;4.962;2024-02-26T13:10:12;7.82;;;4.95;;
19903;SDS011;10114;50.970;4.962;2024-02-26T13:12:45;5.90;;;3.20;;
19903;SDS011;10114;50.970;4.962;2024-02-26T13:15:16;3.63;;;2.35;;
19903;SDS011;10114;50.970;4.962;2024-02-26T13:17:42;5.55;;;3.10;;
19903;SDS011;10114;50.970;4.962;2024-02-26T13:20:08;5.00;;;3.30;;
19903;SDS011;10114;50.970;4.962;2024-02-26T13:22:35;5.03;;;3.05;;
19903;SDS011;10114;50.970;4.962;2024-02-26T13:25:01;9.27;;;5.18;;
19903;SDS011;10114;50.970;4.962;2024-02-26T13:27:28;7.70;;;4.45;;
19903;SDS011;10114;50.970;4.962;2024-02-26T13:30:10;5.88;;;3.35;;
19903;SDS011;10114;50.970;4.962;2024-02-26T13:32:37;4.80;;;2.80;;
19903;SDS011;10114;50.970;4.962;2024-02-26T13:35:10;5.47;;;3.38;;
19903;SDS011;10114;50.970;4.962;2024-02-26T13:37:37;3.20;;;2.35;;
19903;SDS011;10114;50.970;4.962;2024-02-26T13:40:10;6.28;;;3.75;;
19903;SDS011;10114;50.970;4.962;2024-02-26T13:42:37;4.88;;;3.28;;
19903;SDS011;10114;50.970;4.962;2024-02-26T13:45:03;6.53;;;4.07;;
19903;SDS011;10114;50.970;4.962;2024-02-26T13:47:33;4.13;;;2.63;;
19903;SDS011;10114;50.970;4.962;2024-02-26T13:49:59;4.80;;;3.00;;
19903;SDS011;10114;50.970;4.962;2024-02-26T13:52:26;3.70;;;2.33;;
19903;SDS011;10114;50.970;4.962;2024-02-26T13:54:52;8.25;;;4.30;;
19903;SDS011;10114;50.970;4.962;2024-02-26T13:57:19;13.70;;;4.45;;
19903;SDS011;10114;50.970;4.962;2024-02-26T13:59:45;9.68;;;4.50;;
19903;SDS011;10114;50.970;4.962;2024-02-26T14:02:11;5.55;;;3.50;;
19903;SDS011;10114;50.970;4.962;2024-02-26T14:04:37;4.70;;;3.08;;
19903;SDS011;10114;50.970;4.962;2024-02-26T14:07:04;7.63;;;4.15;;
19903;SDS011;10114;50.970;4.962;2024-02-26T14:09:30;4.18;;;2.55;;
19903;SDS011;10114;50.970;4.962;2024-02-26T14:11:57;8.90;;;4.28;;
19903;SDS011;10114;50.970;4.962;2024-02-26T14:14:23;8.63;;;4.95;;
19903;SDS011;10114;50.970;4.962;2024-02-26T14:16:51;7.20;;;4.55;;
19903;SDS011;10114;50.970;4.962;2024-02-26T14:19:17;4.78;;;3.25;;
19903;SDS011;10114;50.970;4.962;2024-02-26T14:21:43;3.55;;;2.22;;
19903;SDS011;10114;50.970;4.962;2024-02-26T14:24:09;4.15;;;2.67;;
19903;SDS011;10114;50.970;4.962;2024-02-26T14:26:35;4.00;;;3.10;;
19903;SDS011;10114;50.970;4.962;2024-02-26T14:29:01;5.78;;;3.42;;
19903;SDS011;10114;50.970;4.962;2024-02-26T14:31:27;4.18;;;2.83;;
19903;SDS011;10114;50.970;4.962;2024-02-26T14:33:53;3.95;;;2.85;;
19903;SDS011;10114;50.970;4.962;2024-02-26T14:36:20;5.05;;;2.45;;
19903;SDS011;10114;50.970;4.962;2024-02-26T14:38:46;7.38;;;3.92;;
19903;SDS011;10114;50.970;4.962;2024-02-26T14:41:12;5.78;;;2.65;;
19903;SDS011;10114;50.970;4.962;2024-02-26T14:43:38;6.40;;;3.50;;
19903;SDS011;10114;50.970;4.962;2024-02-26T14:46:04;5.00;;;2.78;;
19903;SDS011;10114;50.970;4.962;2024-02-26T14:48:31;1.35;;;0.95;;
19903;SDS011;10114;50.970;4.962;2024-02-26T14:50:57;1.77;;;1.45;;